Time;durP1;ratioP1;P1;durP2;ratioP2;P2;SDS_P1;SDS_P2;PMS_P1;PMS_P2;Temp;Humidity;BMP_temperature;BMP_pressure;BME280_temperature;BME280_humidity;BME280_pressure;Samples;Min_cycle;Max_cycle;Signal;HPM_P1;HPM_P2
2022/08/07 00:00:35;;;;;;;12.27;8.07;;;;;;;;;;3332374;42;20097;-57
2022/08/07 00:03:01;;;;;;;15.68;7.80;;;;;;;;;;3332200;42;20625;-59
2022/08/07 00:05:27;;;;;;;14.83;7.93;;;;;;;;;;3326612;42;20113;-58
2022/08/07 00:07:53;;;;;;;13.05;7.82;;;;;;;;;;3331504;42;20088;-59
2022/08/07 00:10:21;;;;;;;13.75;7.70;;;;;;;;;;3331407;42;20176;-60
2022/08/07 00:12:48;;;;;;;13.18;7.60;;;;;;;;;;3334216;42;20571;-57
2022/08/07 00:15:14;;;;;;;12.65;8.02;;;;;;;;;;3339327;42;20562;-58
2022/08/07 00:17:40;;;;;;;13.70;7.80;;;;;;;;;;3335770;42;20212;-58
2022/08/07 00:20:07;;;;;;;13.13;8.45;;;;;;;;;;3339366;42;20104;-57
2022/08/07 00:22:33;;;;;;;12.20;7.65;;;;;;;;;;3335823;42;20148;-59
2022/08/07 00:24:59;;;;;;;15.50;8.68;;;;;;;;;;3339464;42;20136;-56
2022/08/07 00:27:25;;;;;;;15.73;8.05;;;;;;;;;;3335927;42;20089;-58
2022/08/07 00:29:51;;;;;;;14.53;8.27;;;;;;;;;;3339605;42;20136;-58
2022/08/07 00:32:17;;;;;;;14.15;8.15;;;;;;;;;;3347041;42;20100;-59
2022/08/07 00:34:48;;;;;;;14.25;8.32;;;;;;;;;;3335807;42;20160;-58
2022/08/07 00:37:15;;;;;;;14.90;8.52;;;;;;;;;;3341774;42;20186;-58
2022/08/07 00:39:41;;;;;;;15.52;8.20;;;;;;;;;;3334321;42;20148;-59
2022/08/07 00:42:07;;;;;;;13.27;8.40;;;;;;;;;;3339923;42;20169;-59
2022/08/07 00:44:33;;;;;;;15.07;8.45;;;;;;;;;;3339760;42;20556;-57
2022/08/07 00:47:00;;;;;;;14.00;8.50;;;;;;;;;;3332216;42;20173;-59
2022/08/07 00:49:26;;;;;;;13.57;8.48;;;;;;;;;;3338288;42;20127;-58
2022/08/07 00:51:52;;;;;;;14.13;8.85;;;;;;;;;;3339157;42;20105;-57
2022/08/07 00:54:18;;;;;;;13.23;8.20;;;;;;;;;;3331875;42;20104;-59
2022/08/07 00:56:44;;;;;;;14.85;8.50;;;;;;;;;;3340348;42;20594;-57
2022/08/07 00:59:11;;;;;;;15.30;8.18;;;;;;;;;;3338559;42;20105;-54
2022/08/07 01:01:37;;;;;;;14.52;8.10;;;;;;;;;;3335999;42;20517;-59
2022/08/07 01:04:06;;;;;;;15.25;8.68;;;;;;;;;;3329965;42;20081;-57
2022/08/07 01:06:32;;;;;;;13.63;8.90;;;;;;;;;;3331960;42;20144;-59
2022/08/07 01:08:59;;;;;;;14.77;8.30;;;;;;;;;;3335907;42;20157;-58
2022/08/07 01:11:25;;;;;;;14.73;8.35;;;;;;;;;;3342759;42;20476;-60
2022/08/07 01:13:51;;;;;;;15.68;8.57;;;;;;;;;;3338248;42;20663;-59
2022/08/07 01:16:17;;;;;;;13.13;8.13;;;;;;;;;;3332473;42;20220;-57
2022/08/07 01:18:43;;;;;;;14.37;8.20;;;;;;;;;;3332151;42;20173;-56
2022/08/07 01:21:09;;;;;;;15.23;8.32;;;;;;;;;;3338016;42;20190;-56
2022/08/07 01:23:35;;;;;;;13.32;8.80;;;;;;;;;;3345067;42;20548;-57
2022/08/07 01:26:02;;;;;;;11.98;7.85;;;;;;;;;;3329123;42;20101;-57
2022/08/07 01:28:28;;;;;;;12.52;8.45;;;;;;;;;;3334141;42;20081;-58
2022/08/07 01:30:55;;;;;;;14.10;8.43;;;;;;;;;;3335621;42;20097;-58
2022/08/07 01:33:21;;;;;;;16.67;8.43;;;;;;;;;;3325073;42;20156;-53
2022/08/07 01:35:47;;;;;;;13.85;8.40;;;;;;;;;;3332728;42;20111;-59
2022/08/07 01:38:13;;;;;;;15.30;8.27;;;;;;;;;;3322245;42;20117;-57
2022/08/07 01:40:39;;;;;;;14.85;8.15;;;;;;;;;;3333085;42;20135;-60
2022/08/07 01:43:05;;;;;;;12.13;8.03;;;;;;;;;;3333953;42;20100;-55
2022/08/07 01:45:32;;;;;;;13.40;8.40;;;;;;;;;;3319876;42;20100;-56
2022/08/07 01:47:58;;;;;;;13.93;8.23;;;;;;;;;;3333013;42;20101;-59
2022/08/07 01:50:24;;;;;;;15.15;8.52;;;;;;;;;;3338932;42;20175;-60
2022/08/07 01:52:51;;;;;;;16.00;8.07;;;;;;;;;;3341251;42;20152;-60
2022/08/07 01:55:17;;;;;;;15.07;8.00;;;;;;;;;;3331625;42;20144;-58
2022/08/07 01:57:43;;;;;;;16.33;8.55;;;;;;;;;;3336117;42;20105;-56
2022/08/07 02:00:11;;;;;;;15.07;8.75;;;;;;;;;;3325896;42;20214;-56
2022/08/07 02:02:41;;;;;;;12.00;8.13;;;;;;;;;;3337295;42;20097;-57
2022/08/07 02:05:38;;;;;;;15.75;8.30;;;;;;;;;;3336035;42;20118;-58
2022/08/07 02:08:06;;;;;;;15.27;8.20;;;;;;;;;;3335124;42;20113;-57
2022/08/07 02:10:32;;;;;;;12.50;8.27;;;;;;;;;;3326406;42;20567;-58
2022/08/07 02:12:59;;;;;;;16.92;8.50;;;;;;;;;;3325548;42;20104;-57
2022/08/07 02:15:25;;;;;;;13.90;8.32;;;;;;;;;;3332854;42;20182;-57
2022/08/07 02:17:52;;;;;;;13.43;8.15;;;;;;;;;;3345985;42;20907;-59
2022/08/07 02:20:18;;;;;;;15.50;8.60;;;;;;;;;;3339969;42;20147;-58
2022/08/07 02:22:44;;;;;;;16.33;8.20;;;;;;;;;;3325303;42;20519;-57
2022/08/07 02:25:10;;;;;;;13.93;8.45;;;;;;;;;;3333984;42;20175;-57
2022/08/07 02:27:36;;;;;;;13.55;8.45;;;;;;;;;;3332780;42;20527;-58
2022/08/07 02:30:04;;;;;;;14.77;7.90;;;;;;;;;;3330983;42;20088;-58
2022/08/07 02:32:30;;;;;;;14.63;8.13;;;;;;;;;;3334830;42;20144;-56
2022/08/07 02:34:56;;;;;;;13.55;7.88;;;;;;;;;;3332159;42;20359;-62
2022/08/07 02:37:22;;;;;;;14.70;8.32;;;;;;;;;;3338300;42;20128;-57
2022/08/07 02:39:48;;;;;;;14.32;8.32;;;;;;;;;;3333181;42;20096;-60
2022/08/07 02:42:15;;;;;;;13.60;8.50;;;;;;;;;;3319020;42;20231;-59
2022/08/07 02:44:42;;;;;;;15.20;8.50;;;;;;;;;;3332211;42;20097;-59
2022/08/07 02:47:08;;;;;;;12.80;8.52;;;;;;;;;;3334422;42;20101;-61
2022/08/07 02:49:34;;;;;;;16.02;8.52;;;;;;;;;;3333741;42;20155;-58
2022/08/07 02:52:00;;;;;;;11.88;8.25;;;;;;;;;;3335268;42;20160;-57
2022/08/07 02:54:27;;;;;;;13.68;8.57;;;;;;;;;;3327790;42;20092;-58
2022/08/07 02:56:55;;;;;;;12.40;8.40;;;;;;;;;;3326219;42;20184;-59
2022/08/07 02:59:22;;;;;;;12.23;7.97;;;;;;;;;;3332687;42;20512;-56
2022/08/07 03:01:48;;;;;;;16.88;9.02;;;;;;;;;;3323824;42;20700;-60
2022/08/07 03:04:14;;;;;;;15.57;9.50;;;;;;;;;;3336968;42;20097;-58
2022/08/07 03:06:41;;;;;;;16.65;9.95;;;;;;;;;;3327721;42;20530;-59
2022/08/07 03:09:07;;;;;;;14.20;10.03;;;;;;;;;;3326159;42;20093;-59
2022/08/07 03:11:34;;;;;;;17.27;8.98;;;;;;;;;;3330737;42;20101;-57
2022/08/07 03:14:01;;;;;;;12.85;8.73;;;;;;;;;;3335743;42;20163;-60
2022/08/07 03:16:27;;;;;;;14.23;9.38;;;;;;;;;;3341301;42;20156;-60
2022/08/07 03:18:53;;;;;;;12.07;8.65;;;;;;;;;;3328997;42;20523;-58
2022/08/07 03:21:19;;;;;;;12.60;8.27;;;;;;;;;;3335097;42;20690;-58
2022/08/07 03:23:45;;;;;;;11.50;8.00;;;;;;;;;;3331483;42;20131;-60
2022/08/07 03:26:13;;;;;;;37.50;10.95;;;;;;;;;;3317425;42;20096;-58
2022/08/07 03:28:39;;;;;;;20.73;8.95;;;;;;;;;;3328052;42;20096;-58
2022/08/07 03:31:20;;;;;;;29.97;9.70;;;;;;;;;;3333549;42;20156;-59
2022/08/07 03:33:47;;;;;;;18.17;8.63;;;;;;;;;;3322422;42;20105;-57
2022/08/07 03:36:13;;;;;;;16.05;9.88;;;;;;;;;;3320794;42;20115;-59
2022/08/07 03:38:39;;;;;;;15.95;11.20;;;;;;;;;;3323485;42;20101;-60
2022/08/07 03:41:06;;;;;;;16.08;8.75;;;;;;;;;;3327809;42;20180;-58
2022/08/07 03:43:32;;;;;;;12.93;8.30;;;;;;;;;;3330772;42;20175;-56
2022/08/07 03:45:59;;;;;;;18.42;11.00;;;;;;;;;;3336455;42;20089;-58
2022/08/07 03:48:27;;;;;;;17.38;11.75;;;;;;;;;;3332719;42;20100;-59
2022/08/07 03:50:54;;;;;;;15.55;11.75;;;;;;;;;;3333918;42;20148;-59
2022/08/07 03:53:20;;;;;;;18.38;12.00;;;;;;;;;;3330210;42;20153;-60
2022/08/07 03:55:48;;;;;;;17.43;10.37;;;;;;;;;;3336826;42;20088;-57
2022/08/07 03:58:14;;;;;;;15.23;11.27;;;;;;;;;;3334088;42;20136;-58
2022/08/07 04:00:40;;;;;;;16.83;11.43;;;;;;;;;;3332017;42;20507;-59
2022/08/07 04:03:06;;;;;;;17.42;10.55;;;;;;;;;;3340312;42;20100;-58
2022/08/07 04:05:35;;;;;;;16.55;11.27;;;;;;;;;;3328876;42;20100;-59
2022/08/07 04:08:02;;;;;;;14.67;10.50;;;;;;;;;;3325457;42;20571;-60
2022/08/07 04:10:29;;;;;;;15.60;10.43;;;;;;;;;;3340224;42;20112;-59
2022/08/07 04:12:56;;;;;;;18.70;10.35;;;;;;;;;;3324940;42;20105;-58
2022/08/07 04:15:22;;;;;;;12.88;9.63;;;;;;;;;;3332450;42;20618;-59
2022/08/07 04:17:48;;;;;;;15.38;11.30;;;;;;;;;;3333165;42;20195;-59
2022/08/07 04:20:14;;;;;;;16.00;11.43;;;;;;;;;;3330260;42;20100;-59
2022/08/07 04:22:40;;;;;;;13.55;10.32;;;;;;;;;;3326416;42;20136;-59
2022/08/07 04:25:06;;;;;;;15.50;9.70;;;;;;;;;;3327331;42;20104;-57
2022/08/07 04:27:33;;;;;;;14.75;10.23;;;;;;;;;;3326607;42;20161;-58
2022/08/07 04:29:59;;;;;;;17.73;10.38;;;;;;;;;;3336610;42;20148;-58
2022/08/07 04:32:25;;;;;;;16.40;9.37;;;;;;;;;;3333894;42;20111;-58
2022/08/07 04:34:51;;;;;;;14.48;9.63;;;;;;;;;;3325739;42;20141;-59
2022/08/07 04:37:17;;;;;;;16.55;8.80;;;;;;;;;;3327471;42;20497;-58
2022/08/07 04:39:43;;;;;;;14.38;8.80;;;;;;;;;;3325536;42;20116;-59
2022/08/07 04:42:09;;;;;;;12.00;7.97;;;;;;;;;;3333092;42;20128;-59
2022/08/07 04:44:35;;;;;;;14.77;9.43;;;;;;;;;;3334585;42;20160;-58
2022/08/07 04:47:18;;;;;;;14.60;9.00;;;;;;;;;;3334908;42;20123;-57
2022/08/07 04:49:44;;;;;;;14.15;9.40;;;;;;;;;;3328066;42;20104;-59
2022/08/07 04:52:16;;;;;;;14.57;9.20;;;;;;;;;;3337575;42;20101;-59
2022/08/07 04:55:03;;;;;;;11.15;9.20;;;;;;;;;;3330971;42;20153;-61
2022/08/07 04:57:43;;;;;;;14.47;8.57;;;;;;;;;;3334684;42;20599;-59
2022/08/07 05:00:12;;;;;;;17.40;10.15;;;;;;;;;;3336686;42;20078;-56
2022/08/07 05:02:55;;;;;;;11.80;8.48;;;;;;;;;;3337772;42;20084;-59
2022/08/07 05:05:22;;;;;;;13.18;9.65;;;;;;;;;;3331574;42;20138;-60
2022/08/07 05:08:10;;;;;;;12.95;9.27;;;;;;;;;;3329424;42;20101;-58
2022/08/07 05:11:04;;;;;;;11.33;8.90;;;;;;;;;;3332131;42;20097;-59
2022/08/07 05:13:35;;;;;;;10.73;7.85;;;;;;;;;;3324246;42;20192;-59
2022/08/07 05:16:06;;;;;;;14.80;8.45;;;;;;;;;;3318779;42;20156;-59
2022/08/07 05:18:39;;;;;;;10.40;7.90;;;;;;;;;;3326476;42;20085;-59
2022/08/07 05:21:08;;;;;;;11.52;8.27;;;;;;;;;;3328466;42;20120;-59
2022/08/07 05:23:40;;;;;;;15.27;8.67;;;;;;;;;;3333388;42;20089;-60
2022/08/07 05:26:10;;;;;;;13.38;7.80;;;;;;;;;;3332765;42;20104;-59
2022/08/07 05:28:36;;;;;;;11.15;7.85;;;;;;;;;;3330969;42;20107;-59
2022/08/07 05:31:02;;;;;;;12.13;8.00;;;;;;;;;;3333453;42;20108;-59
2022/08/07 05:33:28;;;;;;;14.13;8.17;;;;;;;;;;3323730;42;20105;-57
2022/08/07 05:35:54;;;;;;;12.00;8.15;;;;;;;;;;3334669;42;20304;-56
2022/08/07 05:38:23;;;;;;;13.93;7.72;;;;;;;;;;3334100;42;20167;-58
2022/08/07 05:40:49;;;;;;;11.23;6.80;;;;;;;;;;3328941;42;21045;-59
2022/08/07 05:43:15;;;;;;;12.55;6.82;;;;;;;;;;3328635;42;20557;-58
2022/08/07 05:45:41;;;;;;;12.30;7.38;;;;;;;;;;3332143;42;20155;-58
2022/08/07 05:48:08;;;;;;;12.95;7.00;;;;;;;;;;3334068;42;20144;-58
2022/08/07 05:50:34;;;;;;;11.57;6.45;;;;;;;;;;3333542;42;20153;-59
2022/08/07 05:53:03;;;;;;;11.63;6.57;;;;;;;;;;3329479;42;20111;-59
2022/08/07 05:55:29;;;;;;;11.35;6.20;;;;;;;;;;3334235;42;20093;-57
2022/08/07 05:57:55;;;;;;;10.85;6.65;;;;;;;;;;3333938;42;20107;-57
2022/08/07 06:00:22;;;;;;;10.43;6.70;;;;;;;;;;3329343;42;20101;-58
2022/08/07 06:02:49;;;;;;;11.73;6.28;;;;;;;;;;3322154;42;20103;-59
2022/08/07 06:05:15;;;;;;;12.90;6.20;;;;;;;;;;3326393;42;20104;-59
2022/08/07 06:07:41;;;;;;;10.57;6.75;;;;;;;;;;3325076;42;20107;-58
2022/08/07 06:10:10;;;;;;;11.23;6.38;;;;;;;;;;3335226;42;20097;-59
2022/08/07 06:12:37;;;;;;;12.80;6.03;;;;;;;;;;3330271;42;20584;-57
2022/08/07 06:15:03;;;;;;;10.68;6.20;;;;;;;;;;3337995;42;20089;-57
2022/08/07 06:17:30;;;;;;;9.60;6.00;;;;;;;;;;3336169;42;20118;-58
2022/08/07 06:19:56;;;;;;;12.70;6.75;;;;;;;;;;3334387;42;20376;-57
2022/08/07 06:22:22;;;;;;;14.48;6.40;;;;;;;;;;3337782;42;20176;-57
2022/08/07 06:24:48;;;;;;;10.95;6.30;;;;;;;;;;3334444;42;20093;-58
2022/08/07 06:27:23;;;;;;;10.20;5.78;;;;;;;;;;3334192;42;20093;-57
2022/08/07 06:29:50;;;;;;;9.23;5.70;;;;;;;;;;3339451;42;20555;-57
2022/08/07 06:32:16;;;;;;;11.18;6.10;;;;;;;;;;3332310;42;20265;-58
2022/08/07 06:34:42;;;;;;;11.80;5.90;;;;;;;;;;3339456;42;20163;-57
2022/08/07 06:37:08;;;;;;;9.05;5.20;;;;;;;;;;3330569;42;20101;-59
2022/08/07 06:39:34;;;;;;;11.40;6.30;;;;;;;;;;3327028;42;179373;-59
2022/08/07 06:42:05;;;;;;;9.90;5.82;;;;;;;;;;3339994;42;20093;-58
2022/08/07 06:44:31;;;;;;;9.20;5.93;;;;;;;;;;3335098;42;20107;-58
2022/08/07 06:46:57;;;;;;;10.13;5.07;;;;;;;;;;3335795;42;20097;-59
2022/08/07 06:49:23;;;;;;;10.45;5.75;;;;;;;;;;3331557;42;20112;-58
2022/08/07 06:51:49;;;;;;;10.00;5.20;;;;;;;;;;3330623;42;20096;-59
2022/08/07 06:54:16;;;;;;;11.13;5.57;;;;;;;;;;3335429;42;20096;-59
2022/08/07 06:56:43;;;;;;;9.60;4.80;;;;;;;;;;3323741;42;20092;-62
2022/08/07 06:59:14;;;;;;;9.77;4.78;;;;;;;;;;3335188;42;20112;-59
2022/08/07 07:01:41;;;;;;;8.80;4.97;;;;;;;;;;3328380;42;20100;-58
2022/08/07 07:04:07;;;;;;;8.65;4.88;;;;;;;;;;3335667;42;20591;-59
2022/08/07 07:06:33;;;;;;;9.20;5.00;;;;;;;;;;3333537;42;20168;-59
2022/08/07 07:09:23;;;;;;;8.23;4.70;;;;;;;;;;3330859;42;20105;-59
2022/08/07 07:12:07;;;;;;;7.15;4.00;;;;;;;;;;3333958;42;20683;-60
2022/08/07 07:15:06;;;;;;;10.30;4.63;;;;;;;;;;3333546;42;20156;-58
2022/08/07 07:17:58;;;;;;;7.82;4.25;;;;;;;;;;3334351;42;20085;-60
2022/08/07 07:20:36;;;;;;;6.97;4.10;;;;;;;;;;3338051;42;20167;-58
2022/08/07 07:23:02;;;;;;;8.93;4.03;;;;;;;;;;3325345;42;20171;-59
2022/08/07 07:25:28;;;;;;;6.57;3.80;;;;;;;;;;3332211;42;20111;-58
2022/08/07 07:28:05;;;;;;;9.30;4.10;;;;;;;;;;3330130;42;20100;-59
2022/08/07 07:30:34;;;;;;;8.43;3.80;;;;;;;;;;3337848;42;20100;-59
2022/08/07 07:33:00;;;;;;;8.70;4.00;;;;;;;;;;3328988;42;20108;-57
2022/08/07 07:35:26;;;;;;;8.77;4.17;;;;;;;;;;3336356;42;20204;-57
2022/08/07 07:37:52;;;;;;;8.30;4.20;;;;;;;;;;3334124;42;20099;-62
2022/08/07 07:40:19;;;;;;;9.38;4.70;;;;;;;;;;3335159;42;20173;-60
2022/08/07 07:42:51;;;;;;;7.32;4.65;;;;;;;;;;3332221;42;20151;-57
2022/08/07 07:45:18;;;;;;;13.30;4.90;;;;;;;;;;3330926;42;20152;-58
2022/08/07 07:47:44;;;;;;;8.00;4.30;;;;;;;;;;3330880;42;20738;-58
2022/08/07 07:50:10;;;;;;;8.82;4.68;;;;;;;;;;3326452;42;20140;-58
2022/08/07 07:52:36;;;;;;;8.32;4.10;;;;;;;;;;3321779;42;20165;-59
2022/08/07 07:55:03;;;;;;;9.23;4.15;;;;;;;;;;3329670;42;20089;-59
2022/08/07 07:57:29;;;;;;;7.30;4.50;;;;;;;;;;3332081;42;20586;-57
2022/08/07 07:59:55;;;;;;;11.73;4.40;;;;;;;;;;3320290;42;20101;-60
2022/08/07 08:02:21;;;;;;;7.82;4.00;;;;;;;;;;3328482;42;20105;-59
2022/08/07 08:04:47;;;;;;;10.05;4.22;;;;;;;;;;3328094;42;20089;-57
2022/08/07 08:07:13;;;;;;;6.55;4.18;;;;;;;;;;3334185;42;20101;-57
2022/08/07 08:09:39;;;;;;;9.93;4.30;;;;;;;;;;3320993;42;20554;-59
2022/08/07 08:12:05;;;;;;;8.87;4.10;;;;;;;;;;3332261;42;20577;-58
2022/08/07 08:14:32;;;;;;;7.20;3.80;;;;;;;;;;3322294;42;20108;-59
2022/08/07 08:16:59;;;;;;;9.60;3.65;;;;;;;;;;3328123;42;20563;-55
2022/08/07 08:19:27;;;;;;;7.20;3.90;;;;;;;;;;3330029;42;20149;-55
2022/08/07 08:27:28;;;;;;;7.30;2.90;;;;;;;;;;3326176;42;20093;-59
2022/08/07 08:30:03;;;;;;;8.02;3.40;;;;;;;;;;3332002;42;20176;-59
2022/08/07 08:32:30;;;;;;;8.23;2.90;;;;;;;;;;3322693;42;20097;-58
2022/08/07 08:34:57;;;;;;;6.18;2.78;;;;;;;;;;3338129;42;20092;-57
2022/08/07 08:37:24;;;;;;;7.20;2.77;;;;;;;;;;3327535;42;20101;-63
2022/08/07 08:39:51;;;;;;;5.05;2.70;;;;;;;;;;3330593;42;20136;-58
2022/08/07 08:42:38;;;;;;;6.07;3.20;;;;;;;;;;3330922;42;20103;-57
2022/08/07 08:45:25;;;;;;;5.65;2.90;;;;;;;;;;3321991;42;20097;-59
2022/08/07 08:48:17;;;;;;;5.82;2.80;;;;;;;;;;3326533;42;20099;-57
2022/08/07 08:51:03;;;;;;;7.03;3.10;;;;;;;;;;3333338;42;20116;-57
2022/08/07 08:53:50;;;;;;;6.93;2.60;;;;;;;;;;3332683;42;20109;-57
2022/08/07 08:56:23;;;;;;;5.97;2.80;;;;;;;;;;3334937;42;20108;-57
2022/08/07 08:59:21;;;;;;;6.05;2.80;;;;;;;;;;3326991;42;20093;-56
2022/08/07 09:02:11;;;;;;;6.78;2.63;;;;;;;;;;3330662;42;20103;-58
2022/08/07 09:04:49;;;;;;;7.43;2.70;;;;;;;;;;3330709;42;20177;-59
2022/08/07 09:07:48;;;;;;;7.28;3.17;;;;;;;;;;3328781;42;20093;-58
2022/08/07 09:10:37;;;;;;;7.05;3.00;;;;;;;;;;3342955;42;20095;-58
2022/08/07 09:13:18;;;;;;;5.18;2.40;;;;;;;;;;3337094;42;20208;-57
2022/08/07 09:16:02;;;;;;;6.25;3.00;;;;;;;;;;3339437;42;20149;-57
2022/08/07 09:19:05;;;;;;;5.87;2.80;;;;;;;;;;3335392;42;20927;-58
2022/08/07 09:22:07;;;;;;;6.05;2.97;;;;;;;;;;3343993;42;20534;-57
2022/08/07 09:24:47;;;;;;;6.32;2.90;;;;;;;;;;3334314;42;20096;-58
2022/08/07 09:27:21;;;;;;;7.05;2.80;;;;;;;;;;3335627;42;20100;-59
2022/08/07 09:29:59;;;;;;;5.75;2.70;;;;;;;;;;3332483;42;20572;-57
2022/08/07 09:32:38;;;;;;;5.87;2.87;;;;;;;;;;3335018;42;20656;-58
2022/08/07 09:35:19;;;;;;;5.82;3.10;;;;;;;;;;3332768;42;20554;-59
2022/08/07 09:38:06;;;;;;;6.70;3.63;;;;;;;;;;3332192;42;20112;-61
2022/08/07 09:41:01;;;;;;;7.75;3.20;;;;;;;;;;3335140;42;20101;-59
2022/08/07 09:44:00;;;;;;;5.65;3.15;;;;;;;;;;3319691;42;20148;-57
2022/08/07 09:46:46;;;;;;;7.77;3.30;;;;;;;;;;3331566;42;20088;-59
2022/08/07 09:49:30;;;;;;;10.00;4.22;;;;;;;;;;3333635;42;20137;-60
2022/08/07 09:52:20;;;;;;;6.95;3.30;;;;;;;;;;3341428;42;20156;-60
2022/08/07 09:54:53;;;;;;;6.38;3.40;;;;;;;;;;3323416;42;20176;-58
2022/08/07 09:57:38;;;;;;;6.82;3.42;;;;;;;;;;3344340;42;20512;-60
2022/08/07 10:00:12;;;;;;;7.63;3.17;;;;;;;;;;3339467;42;20128;-59
2022/08/07 10:02:49;;;;;;;6.88;3.40;;;;;;;;;;3336642;42;20085;-58
2022/08/07 10:05:48;;;;;;;9.80;3.38;;;;;;;;;;3332862;42;20124;-59
2022/08/07 10:08:36;;;;;;;7.15;3.90;;;;;;;;;;3328141;42;20123;-60
2022/08/07 10:11:09;;;;;;;6.32;3.65;;;;;;;;;;3344466;42;20172;-60
2022/08/07 10:14:25;;;;;;;6.67;3.47;;;;;;;;;;3345983;42;20855;-60
2022/08/07 10:17:21;;;;;;;10.32;3.65;;;;;;;;;;3325261;42;20111;-60
2022/08/07 10:19:56;;;;;;;7.38;3.60;;;;;;;;;;3342280;42;20135;-60
2022/08/07 10:23:00;;;;;;;7.05;3.42;;;;;;;;;;3338738;42;20096;-60
2022/08/07 10:25:56;;;;;;;6.65;3.40;;;;;;;;;;3335173;42;20610;-60
2022/08/07 10:28:35;;;;;;;6.10;3.37;;;;;;;;;;3326008;42;20160;-60
2022/08/07 10:31:16;;;;;;;6.68;3.58;;;;;;;;;;3327692;42;20100;-59
2022/08/07 10:34:04;;;;;;;6.45;3.60;;;;;;;;;;3338614;42;20590;-59
2022/08/07 10:36:37;;;;;;;6.38;3.35;;;;;;;;;;3333282;42;20175;-59
2022/08/07 10:39:26;;;;;;;6.28;3.60;;;;;;;;;;3340630;42;20100;-60
2022/08/07 10:42:13;;;;;;;7.20;3.83;;;;;;;;;;3334754;42;20108;-58
2022/08/07 10:44:46;;;;;;;9.85;3.67;;;;;;;;;;3320581;42;20108;-57
2022/08/07 10:47:20;;;;;;;8.07;3.80;;;;;;;;;;3332949;42;20175;-58
2022/08/07 10:49:56;;;;;;;6.40;3.65;;;;;;;;;;3338064;42;20168;-57
2022/08/07 10:52:58;;;;;;;8.15;3.80;;;;;;;;;;3333711;42;20589;-57
2022/08/07 10:55:24;;;;;;;6.63;3.80;;;;;;;;;;3325261;42;20488;-58
2022/08/07 10:58:01;;;;;;;6.45;3.80;;;;;;;;;;3335285;42;20108;-59
2022/08/07 11:00:30;;;;;;;6.97;3.60;;;;;;;;;;3332346;42;20098;-57
2022/08/07 11:03:02;;;;;;;6.72;3.70;;;;;;;;;;3324960;42;20550;-55
2022/08/07 11:05:46;;;;;;;5.93;3.33;;;;;;;;;;3325778;42;20108;-57
2022/08/07 11:08:36;;;;;;;7.70;3.73;;;;;;;;;;3328426;42;20104;-57
2022/08/07 11:11:08;;;;;;;10.13;4.35;;;;;;;;;;3326845;42;20089;-55
2022/08/07 11:13:48;;;;;;;6.47;3.50;;;;;;;;;;3328147;42;20157;-56
2022/08/07 11:16:30;;;;;;;7.85;3.53;;;;;;;;;;3328507;42;20148;-56
2022/08/07 11:19:29;;;;;;;8.93;3.65;;;;;;;;;;3327496;42;20868;-56
2022/08/07 11:22:11;;;;;;;10.33;3.73;;;;;;;;;;3324145;42;20097;-51
2022/08/07 11:25:01;;;;;;;8.35;4.07;;;;;;;;;;3323589;42;20156;-57
2022/08/07 11:27:59;;;;;;;8.38;4.00;;;;;;;;;;3332112;42;20124;-57
2022/08/07 11:30:27;;;;;;;11.05;3.72;;;;;;;;;;3330492;42;20639;-56
2022/08/07 11:33:05;;;;;;;8.98;3.90;;;;;;;;;;3343385;42;20564;-56
2022/08/07 11:35:35;;;;;;;6.53;3.87;;;;;;;;;;3335570;42;20160;-57
2022/08/07 11:38:23;;;;;;;9.13;4.10;;;;;;;;;;3324747;42;20175;-55
2022/08/07 11:41:21;;;;;;;7.13;3.80;;;;;;;;;;3323737;42;20093;-56
2022/08/07 11:43:56;;;;;;;11.52;4.30;;;;;;;;;;3323344;42;20097;-56
2022/08/07 11:46:34;;;;;;;7.10;4.28;;;;;;;;;;3332553;42;20089;-54
2022/08/07 11:49:29;;;;;;;11.17;4.20;;;;;;;;;;3339437;42;20100;-57
2022/08/07 11:52:02;;;;;;;7.90;4.38;;;;;;;;;;3326098;42;20285;-54
2022/08/07 11:55:05;;;;;;;10.68;4.47;;;;;;;;;;3332156;42;20104;-56
2022/08/07 11:57:42;;;;;;;10.40;4.60;;;;;;;;;;3330885;42;20099;-57
2022/08/07 12:00:15;;;;;;;7.82;4.60;;;;;;;;;;3342877;42;20100;-60
2022/08/07 12:02:53;;;;;;;7.90;4.53;;;;;;;;;;3335034;42;20097;-57
2022/08/07 12:05:56;;;;;;;10.35;4.30;;;;;;;;;;3339184;42;20148;-55
2022/08/07 12:08:29;;;;;;;10.88;4.90;;;;;;;;;;3332074;42;20092;-55
2022/08/07 12:11:02;;;;;;;12.90;4.85;;;;;;;;;;3328180;42;20197;-54
2022/08/07 12:13:50;;;;;;;8.15;4.30;;;;;;;;;;3327239;42;20116;-55
2022/08/07 12:16:21;;;;;;;7.27;4.50;;;;;;;;;;3339692;42;20119;-56
2022/08/07 12:19:12;;;;;;;8.65;4.47;;;;;;;;;;3333469;42;20176;-57
2022/08/07 12:21:41;;;;;;;10.43;4.75;;;;;;;;;;3333708;42;20131;-57
2022/08/07 12:24:30;;;;;;;7.85;4.25;;;;;;;;;;3331146;42;20113;-58
2022/08/07 12:27:02;;;;;;;6.63;4.00;;;;;;;;;;3332361;42;20131;-56
2022/08/07 12:29:34;;;;;;;7.87;4.10;;;;;;;;;;3333307;42;20175;-56
2022/08/07 12:32:26;;;;;;;7.85;4.10;;;;;;;;;;3319149;42;20104;-54
2022/08/07 12:34:52;;;;;;;10.07;4.28;;;;;;;;;;3314028;42;20108;-56
2022/08/07 12:37:18;;;;;;;8.10;4.80;;;;;;;;;;3340798;42;20175;-55
2022/08/07 12:39:46;;;;;;;10.00;4.30;;;;;;;;;;3326247;42;20179;-55
2022/08/07 12:42:13;;;;;;;10.50;4.80;;;;;;;;;;3324660;42;20579;-56
2022/08/07 12:44:43;;;;;;;9.57;4.70;;;;;;;;;;3323020;42;20129;-57
2022/08/07 12:47:12;;;;;;;7.63;4.40;;;;;;;;;;3331727;42;20096;-58
2022/08/07 12:50:03;;;;;;;8.35;4.22;;;;;;;;;;3339081;42;20645;-58
2022/08/07 12:52:47;;;;;;;7.80;4.10;;;;;;;;;;3339170;42;20551;-55
2022/08/07 12:55:28;;;;;;;10.73;4.30;;;;;;;;;;3323676;42;20614;-56
2022/08/07 12:57:55;;;;;;;10.93;3.88;;;;;;;;;;3330750;42;20116;-57
2022/08/07 13:00:24;;;;;;;9.35;4.15;;;;;;;;;;3324510;42;20152;-55
2022/08/07 13:03:11;;;;;;;8.23;4.45;;;;;;;;;;3339045;42;20092;-58
2022/08/07 13:06:04;;;;;;;7.65;3.97;;;;;;;;;;3344261;42;20073;-57
2022/08/07 13:09:11;;;;;;;8.60;4.10;;;;;;;;;;3330306;42;20085;-55
2022/08/07 13:11:49;;;;;;;8.55;3.92;;;;;;;;;;3335162;42;20511;-57
2022/08/07 13:14:30;;;;;;;6.82;3.90;;;;;;;;;;3343375;42;20204;-58
2022/08/07 13:17:02;;;;;;;8.70;4.38;;;;;;;;;;3335575;42;20168;-55
2022/08/07 13:19:51;;;;;;;8.05;3.88;;;;;;;;;;3344203;42;20148;-57
2022/08/07 13:22:29;;;;;;;8.30;4.20;;;;;;;;;;3333120;42;20111;-55
2022/08/07 13:25:29;;;;;;;6.47;3.58;;;;;;;;;;3325672;42;20103;-55
2022/08/07 13:28:00;;;;;;;9.68;3.40;;;;;;;;;;3326150;42;20950;-55
2022/08/07 13:30:26;;;;;;;6.85;3.50;;;;;;;;;;3327191;42;20105;-56
2022/08/07 13:33:06;;;;;;;6.72;3.30;;;;;;;;;;3324008;42;20100;-57
2022/08/07 13:35:46;;;;;;;7.30;3.40;;;;;;;;;;3327547;42;20105;-55
2022/08/07 13:38:28;;;;;;;7.65;3.30;;;;;;;;;;3321426;42;20539;-58
2022/08/07 13:41:04;;;;;;;8.23;3.40;;;;;;;;;;3321784;42;20562;-58
2022/08/07 13:43:30;;;;;;;7.00;3.80;;;;;;;;;;3338993;42;20093;-55
2022/08/07 13:45:59;;;;;;;6.88;3.70;;;;;;;;;;3327028;42;20200;-55
2022/08/07 13:48:25;;;;;;;7.10;3.10;;;;;;;;;;3333226;42;20104;-58
2022/08/07 13:50:51;;;;;;;8.57;4.13;;;;;;;;;;3331491;42;20100;-56
2022/08/07 13:53:20;;;;;;;9.38;3.72;;;;;;;;;;3336114;42;20097;-58
2022/08/07 13:55:46;;;;;;;7.72;4.00;;;;;;;;;;3325950;42;20149;-59
2022/08/07 14:00:58;;;;;;;8.30;4.00;;;;;;;;;;3334238;42;20543;-58
2022/08/07 14:03:25;;;;;;;8.98;3.90;;;;;;;;;;3344779;42;20216;-55
2022/08/07 14:05:52;;;;;;;8.60;4.57;;;;;;;;;;3328717;42;20149;-55
2022/08/07 14:08:19;;;;;;;8.55;3.90;;;;;;;;;;3339734;42;20238;-57
2022/08/07 14:10:45;;;;;;;7.93;4.00;;;;;;;;;;3339498;42;20105;-57
2022/08/07 14:13:14;;;;;;;7.77;3.80;;;;;;;;;;3336000;42;20092;-58
2022/08/07 14:15:50;;;;;;;6.65;3.58;;;;;;;;;;3329441;42;20163;-53
2022/08/07 14:18:49;;;;;;;8.05;3.60;;;;;;;;;;3331304;42;20092;-57
2022/08/07 14:21:19;;;;;;;7.18;3.83;;;;;;;;;;3334436;42;20148;-53
2022/08/07 14:24:00;;;;;;;8.05;3.97;;;;;;;;;;3337485;42;20520;-58
2022/08/07 14:26:31;;;;;;;10.70;3.90;;;;;;;;;;3342047;42;20100;-56
2022/08/07 14:28:58;;;;;;;8.25;4.10;;;;;;;;;;3340800;42;20095;-56
2022/08/07 14:31:24;;;;;;;10.13;4.45;;;;;;;;;;3323672;42;20630;-56
2022/08/07 14:33:51;;;;;;;10.07;4.63;;;;;;;;;;3326149;42;20631;-58
2022/08/07 14:36:18;;;;;;;7.43;3.92;;;;;;;;;;3329951;42;20179;-56
2022/08/07 14:38:46;;;;;;;8.90;4.00;;;;;;;;;;3322119;42;20181;-55
2022/08/07 14:41:12;;;;;;;8.18;4.30;;;;;;;;;;3330527;42;20627;-55
2022/08/07 14:43:40;;;;;;;9.45;4.30;;;;;;;;;;3327482;42;20092;-58
2022/08/07 14:46:06;;;;;;;7.90;4.07;;;;;;;;;;3334951;42;20179;-56
2022/08/07 14:48:33;;;;;;;8.32;4.30;;;;;;;;;;3331488;42;20583;-53
2022/08/07 14:51:02;;;;;;;10.63;4.13;;;;;;;;;;3321374;42;20518;-55
2022/08/07 14:53:30;;;;;;;9.13;4.43;;;;;;;;;;3319824;42;20128;-57
2022/08/07 14:55:56;;;;;;;9.73;4.43;;;;;;;;;;3323742;42;20092;-55
2022/08/07 14:58:28;;;;;;;9.00;4.20;;;;;;;;;;3320729;42;20093;-57
2022/08/07 15:00:54;;;;;;;9.70;4.70;;;;;;;;;;3334199;42;20556;-58
2022/08/07 15:03:24;;;;;;;8.30;4.10;;;;;;;;;;3328507;42;20567;-58
2022/08/07 15:05:50;;;;;;;9.90;4.30;;;;;;;;;;3320909;42;20108;-56
2022/08/07 15:08:28;;;;;;;7.50;4.13;;;;;;;;;;3330812;42;20587;-54
2022/08/07 15:11:00;;;;;;;10.30;4.05;;;;;;;;;;3337599;42;20105;-60
2022/08/07 15:13:26;;;;;;;12.77;5.00;;;;;;;;;;3328379;42;20109;-56
2022/08/07 15:15:56;;;;;;;10.67;4.50;;;;;;;;;;3332518;42;20160;-56